sensor_id;sensor_type;location;lat;lon;timestamp;pressure;altitude;pressure_sealevel;temperature;humidity
40612;BME280;26317;44.894;20.286;2022-10-17T00:02:46;102003.44;;;14.35;61.87
40612;BME280;26317;44.894;20.286;2022-10-17T00:05:23;101986.31;;;14.24;61.38
40612;BME280;26317;44.894;20.286;2022-10-17T00:07:56;102000.13;;;14.33;61.61
40612;BME280;26317;44.894;20.286;2022-10-17T00:10:37;102000.94;;;14.34;61.63
40612;BME280;26317;44.894;20.286;2022-10-17T00:13:27;102007.16;;;14.34;61.49
40612;BME280;26317;44.894;20.286;2022-10-17T00:16:06;102003.88;;;14.32;61.32
40612;BME280;26317;44.894;20.286;2022-10-17T00:18:50;102003.88;;;14.32;61.40
40612;BME280;26317;44.894;20.286;2022-10-17T00:21:24;102003.09;;;14.32;61.90
40612;BME280;26317;44.894;20.286;2022-10-17T00:23:57;102007.41;;;14.27;61.98
40612;BME280;26317;44.894;20.286;2022-10-17T00:26:41;102004.69;;;14.27;61.63
40612;BME280;26317;44.894;20.286;2022-10-17T00:29:15;101993.84;;;14.22;61.88
40612;BME280;26317;44.894;20.286;2022-10-17T00:31:54;102000.06;;;14.23;62.03
40612;BME280;26317;44.894;20.286;2022-10-17T00:34:33;101997.88;;;14.20;62.08
40612;BME280;26317;44.894;20.286;2022-10-17T00:37:10;102007.06;;;14.19;62.42
40612;BME280;26317;44.894;20.286;2022-10-17T00:39:39;102012.94;;;14.16;62.64
40612;BME280;26317;44.894;20.286;2022-10-17T00:42:12;102004.28;;;14.09;62.05
40612;BME280;26317;44.894;20.286;2022-10-17T00:45:12;101999.88;;;14.03;62.53
40612;BME280;26317;44.894;20.286;2022-10-17T00:48:07;102006.09;;;14.03;62.71
40612;BME280;26317;44.894;20.286;2022-10-17T00:50:51;102002.06;;;14.01;62.53
40612;BME280;26317;44.894;20.286;2022-10-17T00:53:28;101999.59;;;13.99;62.81
40612;BME280;26317;44.894;20.286;2022-10-17T00:56:04;101989.63;;;14.00;62.72
40612;BME280;26317;44.894;20.286;2022-10-17T00:58:34;101996.59;;;13.96;62.54
40612;BME280;26317;44.894;20.286;2022-10-17T01:01:25;101996.88;;;13.94;62.78
40612;BME280;26317;44.894;20.286;2022-10-17T01:04:15;101976.44;;;13.71;62.65
40612;BME280;26317;44.894;20.286;2022-10-17T01:06:49;102004.09;;;13.89;62.77
40612;BME280;26317;44.894;20.286;2022-10-17T01:09:22;101943.38;;;13.54;62.52
40612;BME280;26317;44.894;20.286;2022-10-17T01:11:57;101998.97;;;13.87;62.74
40612;BME280;26317;44.894;20.286;2022-10-17T01:14:47;101995.91;;;13.78;62.62
40612;BME280;26317;44.894;20.286;2022-10-17T01:17:25;101978.03;;;13.67;62.91
40612;BME280;26317;44.894;20.286;2022-10-17T01:33:21;101999.53;;;13.62;63.56
40612;BME280;26317;44.894;20.286;2022-10-17T01:36:05;101983.31;;;13.57;63.79
40612;BME280;26317;44.894;20.286;2022-10-17T01:38:46;101993.34;;;13.62;63.66
40612;BME280;26317;44.894;20.286;2022-10-17T01:41:33;101987.41;;;13.60;63.25
40612;BME280;26317;44.894;20.286;2022-10-17T01:44:26;101990.09;;;13.60;63.42
40612;BME280;26317;44.894;20.286;2022-10-17T01:47:06;101989.03;;;13.61;63.56
40612;BME280;26317;44.894;20.286;2022-10-17T01:50:05;102000.06;;;13.59;63.71
40612;BME280;26317;44.894;20.286;2022-10-17T01:52:46;101998.19;;;13.60;63.44
40612;BME280;26317;44.894;20.286;2022-10-17T01:55:30;101994.09;;;13.57;63.76
40612;BME280;26317;44.894;20.286;2022-10-17T01:58:11;102004.38;;;13.60;63.49
40612;BME280;26317;44.894;20.286;2022-10-17T02:00:52;102003.28;;;13.61;63.65
40612;BME280;26317;44.894;20.286;2022-10-17T02:03:33;102007.09;;;13.60;63.28
40612;BME280;26317;44.894;20.286;2022-10-17T02:06:21;102004.38;;;13.60;63.63
40612;BME280;26317;44.894;20.286;2022-10-17T02:08:56;102007.09;;;13.60;63.63
40612;BME280;26317;44.894;20.286;2022-10-17T02:11:34;102008.16;;;13.59;63.59
40612;BME280;26317;44.894;20.286;2022-10-17T02:14:25;102007.63;;;13.62;63.37
40612;BME280;26317;44.894;20.286;2022-10-17T02:17:22;102005.44;;;13.59;63.40
40612;BME280;26317;44.894;20.286;2022-10-17T02:20:16;101998.63;;;13.52;63.12
40612;BME280;26317;44.894;20.286;2022-10-17T02:23:14;102011.09;;;13.58;63.39
40612;BME280;26317;44.894;20.286;2022-10-17T02:25:56;102005.97;;;13.56;63.35
40612;BME280;26317;44.894;20.286;2022-10-17T02:28:41;102006.97;;;13.50;63.19
40612;BME280;26317;44.894;20.286;2022-10-17T02:31:20;102014.00;;;13.51;63.12
40612;BME280;26317;44.894;20.286;2022-10-17T02:34:16;102020.69;;;13.49;63.25
40612;BME280;26317;44.894;20.286;2022-10-17T02:36:54;102016.94;;;13.50;63.38
40612;BME280;26317;44.894;20.286;2022-10-17T02:39:32;102018.78;;;13.44;63.35
40612;BME280;26317;44.894;20.286;2022-10-17T02:42:19;102020.38;;;13.45;63.62
40612;BME280;26317;44.894;20.286;2022-10-17T02:44:56;102026.00;;;13.39;63.50
40612;BME280;26317;44.894;20.286;2022-10-17T02:47:43;102031.88;;;13.35;63.87
40612;BME280;26317;44.894;20.286;2022-10-17T02:50:36;102036.94;;;13.32;64.00
40612;BME280;26317;44.894;20.286;2022-10-17T02:53:28;102032.06;;;13.29;64.35
40612;BME280;26317;44.894;20.286;2022-10-17T02:56:10;102030.94;;;13.25;64.48
40612;BME280;26317;44.894;20.286;2022-10-17T02:58:50;102030.44;;;13.28;64.35
40612;BME280;26317;44.894;20.286;2022-10-17T03:01:29;102030.44;;;13.28;64.35
40612;BME280;26317;44.894;20.286;2022-10-17T03:04:14;102031.19;;;13.23;64.52
40612;BME280;26317;44.894;20.286;2022-10-17T03:06:48;102042.75;;;13.19;64.56
40612;BME280;26317;44.894;20.286;2022-10-17T03:09:23;102035.13;;;13.16;64.94
40612;BME280;26317;44.894;20.286;2022-10-17T03:12:10;102023.91;;;13.02;64.96
40612;BME280;26317;44.894;20.286;2022-10-17T03:14:45;102051.31;;;13.16;65.05
40612;BME280;26317;44.894;20.286;2022-10-17T03:17:22;102049.75;;;13.20;64.98
40612;BME280;26317;44.894;20.286;2022-10-17T03:19:55;102053.44;;;13.14;65.02
40612;BME280;26317;44.894;20.286;2022-10-17T03:22:27;102052.06;;;13.11;65.32
40612;BME280;26317;44.894;20.286;2022-10-17T03:24:59;102054.75;;;13.11;65.48
40612;BME280;26317;44.894;20.286;2022-10-17T03:27:46;102058.97;;;13.07;65.32
40612;BME280;26317;44.894;20.286;2022-10-17T03:30:17;102061.94;;;13.06;65.63
40612;BME280;26317;44.894;20.286;2022-10-17T03:33:02;102053.47;;;12.97;65.39
40612;BME280;26317;44.894;20.286;2022-10-17T03:35:37;102073.75;;;13.05;65.58
40612;BME280;26317;44.894;20.286;2022-10-17T03:38:14;102066.75;;;13.04;65.50
40612;BME280;26317;44.894;20.286;2022-10-17T03:40:54;102075.88;;;13.03;65.69
40612;BME280;26317;44.894;20.286;2022-10-17T03:43:42;102077.78;;;13.02;65.64
40612;BME280;26317;44.894;20.286;2022-10-17T03:46:18;102080.13;;;12.99;65.88
40612;BME280;26317;44.894;20.286;2022-10-17T03:49:12;102079.00;;;12.95;65.92
40612;BME280;26317;44.894;20.286;2022-10-17T03:51:44;102080.63;;;12.96;65.79
40612;BME280;26317;44.894;20.286;2022-10-17T03:54:32;102087.91;;;12.95;66.28
40612;BME280;26317;44.894;20.286;2022-10-17T03:57:07;102090.59;;;12.95;66.13
40612;BME280;26317;44.894;20.286;2022-10-17T03:59:53;102087.09;;;12.95;66.39
40612;BME280;26317;44.894;20.286;2022-10-17T04:02:30;102083.34;;;12.96;65.96
40612;BME280;26317;44.894;20.286;2022-10-17T04:05:09;102081.16;;;12.93;66.17
40612;BME280;26317;44.894;20.286;2022-10-17T04:07:54;102081.66;;;12.89;66.41
40612;BME280;26317;44.894;20.286;2022-10-17T04:10:51;102086.69;;;12.86;66.15
40612;BME280;26317;44.894;20.286;2022-10-17T04:13:24;102093.41;;;12.83;66.39
40612;BME280;26317;44.894;20.286;2022-10-17T04:16:05;102084.75;;;12.81;67.10
40612;BME280;26317;44.894;20.286;2022-10-17T04:18:50;102085.75;;;12.75;67.10
40612;BME280;26317;44.894;20.286;2022-10-17T04:21:24;102089.66;;;12.68;67.35
40612;BME280;26317;44.894;20.286;2022-10-17T04:24:07;102085.03;;;12.63;67.65
40612;BME280;26317;44.894;20.286;2022-10-17T04:27:09;102090.31;;;12.58;68.12
40612;BME280;26317;44.894;20.286;2022-10-17T04:29:45;102097.03;;;12.56;68.07
40612;BME280;26317;44.894;20.286;2022-10-17T04:32:27;102089.91;;;12.50;68.33
40612;BME280;26317;44.894;20.286;2022-10-17T04:35:16;102098.41;;;12.41;68.45
40612;BME280;26317;44.894;20.286;2022-10-17T04:37:59;102105.34;;;12.37;69.01
40612;BME280;26317;44.894;20.286;2022-10-17T04:40:35;102093.75;;;12.37;68.95
40612;BME280;26317;44.894;20.286;2022-10-17T04:43:10;102103.97;;;12.35;69.10
40612;BME280;26317;44.894;20.286;2022-10-17T04:45:42;102104.50;;;12.37;68.80
40612;BME280;26317;44.894;20.286;2022-10-17T04:48:19;102097.50;;;12.36;69.00
40612;BME280;26317;44.894;20.286;2022-10-17T04:50:57;102113.63;;;12.36;69.00
40612;BME280;26317;44.894;20.286;2022-10-17T04:53:39;102106.31;;;12.31;69.21
40612;BME280;26317;44.894;20.286;2022-10-17T04:56:19;102073.34;;;12.08;69.00
40612;BME280;26317;44.894;20.286;2022-10-17T04:59:04;102114.53;;;12.25;69.59
40612;BME280;26317;44.894;20.286;2022-10-17T05:01:45;102109.38;;;12.23;69.89
40612;BME280;26317;44.894;20.286;2022-10-17T05:04:24;102110.69;;;12.21;69.75
40612;BME280;26317;44.894;20.286;2022-10-17T05:07:04;102114.38;;;12.15;69.81
40612;BME280;26317;44.894;20.286;2022-10-17T05:10:08;102104.66;;;12.14;70.47
40612;BME280;26317;44.894;20.286;2022-10-17T05:12:48;102116.28;;;12.03;70.12
40612;BME280;26317;44.894;20.286;2022-10-17T05:15:27;102115.72;;;12.01;70.26
40612;BME280;26317;44.894;20.286;2022-10-17T05:17:59;102115.13;;;11.98;70.70
40612;BME280;26317;44.894;20.286;2022-10-17T05:20:55;102123.78;;;12.01;70.59
40612;BME280;26317;44.894;20.286;2022-10-17T05:23:31;102128.56;;;11.98;70.50
40612;BME280;26317;44.894;20.286;2022-10-17T05:26:03;102131.25;;;11.98;70.54
40612;BME280;26317;44.894;20.286;2022-10-17T05:28:42;102113.91;;;11.89;70.62
40612;BME280;26317;44.894;20.286;2022-10-17T05:31:15;102144.38;;;11.95;70.73
40612;BME280;26317;44.894;20.286;2022-10-17T05:33:47;102147.50;;;12.04;71.00
40612;BME280;26317;44.894;20.286;2022-10-17T05:36:30;102149.69;;;12.07;70.93
40612;BME280;26317;44.894;20.286;2022-10-17T05:39:03;102154.94;;;12.13;70.79
40612;BME280;26317;44.894;20.286;2022-10-17T05:41:50;102154.22;;;12.18;70.71
40612;BME280;26317;44.894;20.286;2022-10-17T05:44:24;102155.88;;;12.19;70.56
40612;BME280;26317;44.894;20.286;2022-10-17T05:47:22;102156.44;;;12.21;70.80
40612;BME280;26317;44.894;20.286;2022-10-17T05:49:59;102161.09;;;12.25;70.40
40612;BME280;26317;44.894;20.286;2022-10-17T05:53:11;102156.63;;;12.31;70.16
40612;BME280;26317;44.894;20.286;2022-10-17T05:55:54;102162.88;;;12.36;70.43
40612;BME280;26317;44.894;20.286;2022-10-17T05:58:57;102165.69;;;12.41;70.70
40612;BME280;26317;44.894;20.286;2022-10-17T06:02:08;102175.31;;;12.54;70.52
40612;BME280;26317;44.894;20.286;2022-10-17T06:04:44;102176.69;;;12.57;70.25
40612;BME280;26317;44.894;20.286;2022-10-17T06:07:27;102179.78;;;12.65;70.47
40612;BME280;26317;44.894;20.286;2022-10-17T06:10:12;102161.13;;;12.59;69.95
40612;BME280;26317;44.894;20.286;2022-10-17T06:12:49;102186.41;;;12.74;69.99
40612;BME280;26317;44.894;20.286;2022-10-17T06:15:25;102175.72;;;12.79;69.53
40612;BME280;26317;44.894;20.286;2022-10-17T06:18:06;102185.84;;;12.89;69.72
40612;BME280;26317;44.894;20.286;2022-10-17T06:20:38;102190.56;;;12.99;69.52
40612;BME280;26317;44.894;20.286;2022-10-17T06:23:13;102188.84;;;13.09;69.31
40612;BME280;26317;44.894;20.286;2022-10-17T06:26:02;102193.63;;;13.19;69.41
40612;BME280;26317;44.894;20.286;2022-10-17T06:28:52;102197.50;;;13.28;68.84
40612;BME280;26317;44.894;20.286;2022-10-17T06:31:30;102193.91;;;13.39;68.45
40612;BME280;26317;44.894;20.286;2022-10-17T06:34:03;102191.59;;;13.48;68.37
40612;BME280;26317;44.894;20.286;2022-10-17T06:36:40;102197.94;;;13.58;67.85
40612;BME280;26317;44.894;20.286;2022-10-17T06:39:24;102203.47;;;13.68;67.65
40612;BME280;26317;44.894;20.286;2022-10-17T06:42:10;102207.84;;;13.74;67.37
40612;BME280;26317;44.894;20.286;2022-10-17T06:45:08;102207.22;;;13.89;67.17
40612;BME280;26317;44.894;20.286;2022-10-17T06:48:14;102213.59;;;14.05;66.80
40612;BME280;26317;44.894;20.286;2022-10-17T06:51:18;102211.59;;;14.17;65.87
40612;BME280;26317;44.894;20.286;2022-10-17T06:53:56;102217.09;;;14.27;65.52
40612;BME280;26317;44.894;20.286;2022-10-17T06:56:54;102223.19;;;14.39;64.92
40612;BME280;26317;44.894;20.286;2022-10-17T07:00:01;102223.25;;;14.44;64.37
40612;BME280;26317;44.894;20.286;2022-10-17T07:02:53;102226.59;;;14.56;63.96
40612;BME280;26317;44.894;20.286;2022-10-17T07:05:53;102226.16;;;14.69;63.12
40612;BME280;26317;44.894;20.286;2022-10-17T07:08:32;102221.09;;;14.73;63.10
40612;BME280;26317;44.894;20.286;2022-10-17T07:11:12;102233.38;;;14.91;62.84
40612;BME280;26317;44.894;20.286;2022-10-17T07:13:53;102225.09;;;15.02;64.36
40612;BME280;26317;44.894;20.286;2022-10-17T07:16:39;102240.09;;;15.20;61.71
40612;BME280;26317;44.894;20.286;2022-10-17T07:19:21;102236.94;;;15.33;61.99
40612;BME280;26317;44.894;20.286;2022-10-17T07:21:59;102245.16;;;15.48;60.11
40612;BME280;26317;44.894;20.286;2022-10-17T07:24:33;102237.38;;;15.52;60.78
40612;BME280;26317;44.894;20.286;2022-10-17T07:27:30;102254.22;;;15.69;59.22
40612;BME280;26317;44.894;20.286;2022-10-17T07:30:12;102259.66;;;15.74;58.88
40612;BME280;26317;44.894;20.286;2022-10-17T07:33:19;102244.84;;;15.92;58.56
40612;BME280;26317;44.894;20.286;2022-10-17T07:35:52;102247.59;;;15.97;58.65
40612;BME280;26317;44.894;20.286;2022-10-17T07:38:29;102246.03;;;16.11;58.10
40612;BME280;26317;44.894;20.286;2022-10-17T07:41:06;102242.50;;;16.21;56.79
40612;BME280;26317;44.894;20.286;2022-10-17T07:43:40;102252.03;;;16.33;55.46
40612;BME280;26317;44.894;20.286;2022-10-17T07:46:24;102244.47;;;16.40;56.13
40612;BME280;26317;44.894;20.286;2022-10-17T07:49:03;102225.22;;;16.37;55.30
40612;BME280;26317;44.894;20.286;2022-10-17T07:51:35;102249.69;;;16.57;53.78
40612;BME280;26317;44.894;20.286;2022-10-17T07:54:08;102248.34;;;16.65;52.20
40612;BME280;26317;44.894;20.286;2022-10-17T07:56:49;102247.81;;;16.73;50.32
40612;BME280;26317;44.894;20.286;2022-10-17T07:59:31;102253.25;;;16.78;51.34
40612;BME280;26317;44.894;20.286;2022-10-17T08:02:03;102217.97;;;16.63;50.84
40612;BME280;26317;44.894;20.286;2022-10-17T08:04:38;102256.19;;;16.91;50.93
40612;BME280;26317;44.894;20.286;2022-10-17T08:07:24;102254.31;;;16.97;50.27
40612;BME280;26317;44.894;20.286;2022-10-17T08:10:00;102258.09;;;17.01;50.13
40612;BME280;26317;44.894;20.286;2022-10-17T08:12:39;102268.41;;;17.14;48.69
40612;BME280;26317;44.894;20.286;2022-10-17T08:15:26;102267.59;;;17.19;47.92
40612;BME280;26317;44.894;20.286;2022-10-17T08:18:03;102257.28;;;17.21;49.39
40612;BME280;26317;44.894;20.286;2022-10-17T08:20:50;102258.63;;;17.28;49.51
40612;BME280;26317;44.894;20.286;2022-10-17T08:23:24;102247.50;;;17.40;48.02
40612;BME280;26317;44.894;20.286;2022-10-17T08:25:57;102252.88;;;17.45;48.29
40612;BME280;26317;44.894;20.286;2022-10-17T08:28:34;102251.53;;;17.58;47.75
40612;BME280;26317;44.894;20.286;2022-10-17T08:31:12;102254.00;;;17.59;48.40
40612;BME280;26317;44.894;20.286;2022-10-17T08:33:58;102261.28;;;17.69;48.46
40612;BME280;26317;44.894;20.286;2022-10-17T08:36:33;102255.31;;;17.72;48.48
40612;BME280;26317;44.894;20.286;2022-10-17T08:39:03;102230.88;;;17.67;48.28
40612;BME280;26317;44.894;20.286;2022-10-17T08:42:04;102266.38;;;17.90;48.11
40612;BME280;26317;44.894;20.286;2022-10-17T08:44:59;102255.78;;;17.94;47.71
40612;BME280;26317;44.894;20.286;2022-10-17T08:47:38;102268.25;;;17.95;47.13
40612;BME280;26317;44.894;20.286;2022-10-17T08:50:16;102269.59;;;18.03;48.68
40612;BME280;26317;44.894;20.286;2022-10-17T08:53:12;102271.72;;;18.11;47.92
40612;BME280;26317;44.894;20.286;2022-10-17T08:55:54;102268.19;;;18.15;48.82
40612;BME280;26317;44.894;20.286;2022-10-17T08:58:30;102269.75;;;18.21;47.54
40612;BME280;26317;44.894;20.286;2022-10-17T09:01:32;102259.97;;;18.20;47.10
40612;BME280;26317;44.894;20.286;2022-10-17T09:04:41;102275.19;;;18.26;46.76
40612;BME280;26317;44.894;20.286;2022-10-17T09:07:26;102273.50;;;18.35;46.84
40612;BME280;26317;44.894;20.286;2022-10-17T09:10:17;102268.31;;;18.39;46.61
40612;BME280;26317;44.894;20.286;2022-10-17T09:13:00;102269.13;;;18.39;47.39
40612;BME280;26317;44.894;20.286;2022-10-17T09:19:03;102275.03;;;18.57;47.86
40612;BME280;26317;44.894;20.286;2022-10-17T09:21:49;102261.44;;;18.62;46.52
40612;BME280;26317;44.894;20.286;2022-10-17T09:24:34;102252.16;;;18.63;46.80
40612;BME280;26317;44.894;20.286;2022-10-17T09:27:33;102264.59;;;18.74;47.07
40612;BME280;26317;44.894;20.286;2022-10-17T09:30:30;102264.88;;;18.72;46.95
40612;BME280;26317;44.894;20.286;2022-10-17T09:33:09;102267.25;;;18.79;47.23
40612;BME280;26317;44.894;20.286;2022-10-17T09:35:45;102272.66;;;18.84;46.52
40612;BME280;26317;44.894;20.286;2022-10-17T09:38:29;102274.28;;;18.85;46.44
40612;BME280;26317;44.894;20.286;2022-10-17T09:41:12;102280.78;;;18.89;46.66
40612;BME280;26317;44.894;20.286;2022-10-17T09:43:59;102284.53;;;18.98;46.91
40612;BME280;26317;44.894;20.286;2022-10-17T09:47:20;102284.72;;;19.07;46.77
40612;BME280;26317;44.894;20.286;2022-10-17T09:50:28;102284.16;;;19.10;46.26
40612;BME280;26317;44.894;20.286;2022-10-17T09:53:02;102284.38;;;19.13;46.14
40612;BME280;26317;44.894;20.286;2022-10-17T09:55:40;102281.63;;;19.18;45.19
40612;BME280;26317;44.894;20.286;2022-10-17T09:58:13;102283.03;;;19.16;45.34
40612;BME280;26317;44.894;20.286;2022-10-17T10:01:16;102289.22;;;19.21;44.74
40612;BME280;26317;44.894;20.286;2022-10-17T10:04:11;102284.28;;;19.28;45.69
40612;BME280;26317;44.894;20.286;2022-10-17T10:07:02;102282.59;;;19.33;45.23
40612;BME280;26317;44.894;20.286;2022-10-17T10:09:35;102279.25;;;19.41;45.93
40612;BME280;26317;44.894;20.286;2022-10-17T10:12:19;102283.88;;;19.40;44.55
40612;BME280;26317;44.894;20.286;2022-10-17T10:14:53;102282.78;;;19.41;44.68
40612;BME280;26317;44.894;20.286;2022-10-17T10:17:36;102280.53;;;19.53;44.71
40612;BME280;26317;44.894;20.286;2022-10-17T10:20:33;102279.06;;;19.61;44.37
40612;BME280;26317;44.894;20.286;2022-10-17T10:23:12;102285.03;;;19.63;44.02
40612;BME280;26317;44.894;20.286;2022-10-17T10:26:05;102281.38;;;19.72;43.98
40612;BME280;26317;44.894;20.286;2022-10-17T10:28:55;102278.09;;;19.75;43.38
40612;BME280;26317;44.894;20.286;2022-10-17T10:31:29;102275.03;;;19.82;44.29
40612;BME280;26317;44.894;20.286;2022-10-17T10:34:24;102252.47;;;19.77;44.15
40612;BME280;26317;44.894;20.286;2022-10-17T10:37:00;102262.94;;;19.88;43.17
40612;BME280;26317;44.894;20.286;2022-10-17T10:39:49;102274.03;;;19.97;42.79
40612;BME280;26317;44.894;20.286;2022-10-17T10:42:46;102272.56;;;20.04;43.13
40612;BME280;26317;44.894;20.286;2022-10-17T10:45:24;102270.88;;;20.08;42.41
40612;BME280;26317;44.894;20.286;2022-10-17T10:47:58;102272.22;;;20.11;43.02
40612;BME280;26317;44.894;20.286;2022-10-17T10:50:35;102263.66;;;20.17;42.09
40612;BME280;26317;44.894;20.286;2022-10-17T10:53:30;102261.97;;;20.21;42.41
40612;BME280;26317;44.894;20.286;2022-10-17T10:56:08;102260.81;;;20.28;43.23
40612;BME280;26317;44.894;20.286;2022-10-17T10:58:52;102259.66;;;20.34;42.76
40612;BME280;26317;44.894;20.286;2022-10-17T11:01:36;102265.56;;;20.41;42.11
40612;BME280;26317;44.894;20.286;2022-10-17T11:04:27;102265.72;;;20.49;41.42
40612;BME280;26317;44.894;20.286;2022-10-17T11:07:15;102250.69;;;20.52;42.36
40612;BME280;26317;44.894;20.286;2022-10-17T11:10:08;102247.69;;;20.53;42.18
40612;BME280;26317;44.894;20.286;2022-10-17T11:12:47;102247.72;;;20.67;42.04
40612;BME280;26317;44.894;20.286;2022-10-17T11:15:35;102245.72;;;20.73;41.93
40612;BME280;26317;44.894;20.286;2022-10-17T11:18:15;102251.31;;;20.81;41.51
40612;BME280;26317;44.894;20.286;2022-10-17T11:20:57;102248.31;;;20.83;41.14
40612;BME280;26317;44.894;20.286;2022-10-17T11:23:47;102242.25;;;20.86;41.53
40612;BME280;26317;44.894;20.286;2022-10-17T11:26:27;102244.78;;;20.96;41.65
40612;BME280;26317;44.894;20.286;2022-10-17T11:29:05;102247.16;;;21.02;41.34
40612;BME280;26317;44.894;20.286;2022-10-17T11:31:49;102242.72;;;21.06;41.92
40612;BME280;26317;44.894;20.286;2022-10-17T11:34:28;102251.34;;;21.14;41.60
40612;BME280;26317;44.894;20.286;2022-10-17T11:37:03;102243.06;;;21.19;40.99
40612;BME280;26317;44.894;20.286;2022-10-17T11:39:42;102240.53;;;21.22;40.82
40612;BME280;26317;44.894;20.286;2022-10-17T11:42:19;102242.09;;;21.28;41.38
40612;BME280;26317;44.894;20.286;2022-10-17T11:45:04;102234.09;;;21.32;41.12
40612;BME280;26317;44.894;20.286;2022-10-17T11:47:43;102227.53;;;21.33;41.06
40612;BME280;26317;44.894;20.286;2022-10-17T11:50:38;102229.66;;;21.36;41.06
40612;BME280;26317;44.894;20.286;2022-10-17T11:53:15;102220.16;;;21.47;40.54
40612;BME280;26317;44.894;20.286;2022-10-17T11:56:06;102221.47;;;21.49;40.48
40612;BME280;26317;44.894;20.286;2022-10-17T11:58:46;102223.06;;;21.50;40.72
40612;BME280;26317;44.894;20.286;2022-10-17T12:01:26;102218.34;;;21.56;39.80
40612;BME280;26317;44.894;20.286;2022-10-17T12:04:20;102225.72;;;21.69;39.50
40612;BME280;26317;44.894;20.286;2022-10-17T12:07:10;102225.28;;;21.76;39.21
40612;BME280;26317;44.894;20.286;2022-10-17T12:10:00;102214.16;;;21.86;39.31
40612;BME280;26317;44.894;20.286;2022-10-17T12:12:39;102212.34;;;21.81;39.39
40612;BME280;26317;44.894;20.286;2022-10-17T12:15:32;102209.53;;;21.86;39.29
40612;BME280;26317;44.894;20.286;2022-10-17T12:18:16;102215.91;;;21.95;39.65
40612;BME280;26317;44.894;20.286;2022-10-17T12:21:07;102209.53;;;22.00;39.01
40612;BME280;26317;44.894;20.286;2022-10-17T12:23:59;102210.72;;;22.08;38.36
40612;BME280;26317;44.894;20.286;2022-10-17T12:26:32;102206.44;;;22.15;38.72
40612;BME280;26317;44.894;20.286;2022-10-17T12:29:26;102206.94;;;22.17;38.04
40612;BME280;26317;44.894;20.286;2022-10-17T12:32:09;102210.38;;;22.23;37.59
40612;BME280;26317;44.894;20.286;2022-10-17T12:34:54;102203.28;;;22.22;37.17
40612;BME280;26317;44.894;20.286;2022-10-17T12:41:05;102171.84;;;22.11;36.57
40612;BME280;26317;44.894;20.286;2022-10-17T12:43:50;102193.88;;;22.28;36.36
40612;BME280;26317;44.894;20.286;2022-10-17T12:46:49;102183.75;;;22.28;36.60
40612;BME280;26317;44.894;20.286;2022-10-17T12:49:52;102195.34;;;22.34;36.71
40612;BME280;26317;44.894;20.286;2022-10-17T12:53:01;102191.50;;;22.35;35.95
40612;BME280;26317;44.894;20.286;2022-10-17T12:55:43;102184.00;;;22.40;36.19
40612;BME280;26317;44.894;20.286;2022-10-17T12:58:20;102179.19;;;22.46;35.25
40612;BME280;26317;44.894;20.286;2022-10-17T13:01:08;102181.88;;;22.37;35.02
40612;BME280;26317;44.894;20.286;2022-10-17T13:04:08;102173.53;;;22.42;34.98
40612;BME280;26317;44.894;20.286;2022-10-17T13:06:53;102170.06;;;22.51;35.71
40612;BME280;26317;44.894;20.286;2022-10-17T13:09:30;102177.31;;;22.55;35.86
40612;BME280;26317;44.894;20.286;2022-10-17T13:12:14;102172.25;;;22.62;35.01
40612;BME280;26317;44.894;20.286;2022-10-17T13:14:55;102172.63;;;22.69;35.01
40612;BME280;26317;44.894;20.286;2022-10-17T13:17:50;102164.91;;;22.71;34.46
40612;BME280;26317;44.894;20.286;2022-10-17T13:20:38;102162.69;;;22.73;34.30
40612;BME280;26317;44.894;20.286;2022-10-17T13:23:21;102172.19;;;22.76;34.51
40612;BME280;26317;44.894;20.286;2022-10-17T13:26:03;102171.72;;;22.74;34.03
40612;BME280;26317;44.894;20.286;2022-10-17T13:28:44;102165.63;;;22.63;34.02
40612;BME280;26317;44.894;20.286;2022-10-17T13:31:32;102166.38;;;22.55;34.88
40612;BME280;26317;44.894;20.286;2022-10-17T13:34:19;102166.03;;;22.48;35.39
40612;BME280;26317;44.894;20.286;2022-10-17T13:37:06;102154.91;;;22.44;35.44
40612;BME280;26317;44.894;20.286;2022-10-17T13:39:51;102166.88;;;22.35;34.94
40612;BME280;26317;44.894;20.286;2022-10-17T13:42:30;102158.25;;;22.19;34.98
40612;BME280;26317;44.894;20.286;2022-10-17T13:45:36;102168.25;;;22.24;34.63
40612;BME280;26317;44.894;20.286;2022-10-17T13:48:29;102175.06;;;22.13;34.11
40612;BME280;26317;44.894;20.286;2022-10-17T13:51:06;102169.03;;;22.02;34.07
40612;BME280;26317;44.894;20.286;2022-10-17T13:53:54;102165.19;;;21.89;34.63
40612;BME280;26317;44.894;20.286;2022-10-17T13:56:32;102178.03;;;21.75;35.68
40612;BME280;26317;44.894;20.286;2022-10-17T13:59:18;102179.28;;;21.69;35.82
40612;BME280;26317;44.894;20.286;2022-10-17T14:01:51;102157.78;;;21.54;35.81
40612;BME280;26317;44.894;20.286;2022-10-17T14:04:30;102174.63;;;21.56;36.01
40612;BME280;26317;44.894;20.286;2022-10-17T14:07:02;102163.00;;;21.50;36.10
40612;BME280;26317;44.894;20.286;2022-10-17T14:09:57;102146.13;;;21.35;36.82
40612;BME280;26317;44.894;20.286;2022-10-17T14:12:35;102160.78;;;21.39;36.05
40612;BME280;26317;44.894;20.286;2022-10-17T14:17:58;102167.38;;;21.24;35.59
40612;BME280;26317;44.894;20.286;2022-10-17T14:20:42;102161.72;;;21.21;36.34
40612;BME280;26317;44.894;20.286;2022-10-17T14:23:37;102166.94;;;21.17;36.25
40612;BME280;26317;44.894;20.286;2022-10-17T14:26:21;102164.59;;;21.10;36.34
40612;BME280;26317;44.894;20.286;2022-10-17T14:29:05;102157.50;;;21.09;36.44